sensor_id;sensor_type;location;lat;lon;timestamp;P1;durP1;ratioP1;P2;durP2;ratioP2
18066;SDS011;9158;51.528;7.192;2023-07-02T00:00:13;5.50;;;3.37;;
18066;SDS011;9158;51.528;7.192;2023-07-02T00:00:45;4.05;;;3.17;;
18066;SDS011;9158;51.528;7.192;2023-07-02T00:01:16;3.73;;;3.43;;
18066;SDS011;9158;51.528;7.192;2023-07-02T00:01:47;3.47;;;3.27;;
18066;SDS011;9158;51.528;7.192;2023-07-02T00:02:18;3.10;;;2.90;;
18066;SDS011;9158;51.528;7.192;2023-07-02T00:02:50;3.05;;;2.65;;
18066;SDS011;9158;51.528;7.192;2023-07-02T00:03:22;3.27;;;3.07;;
18066;SDS011;9158;51.528;7.192;2023-07-02T00:03:53;7.25;;;3.75;;
18066;SDS011;9158;51.528;7.192;2023-07-02T00:04:24;3.70;;;3.30;;
18066;SDS011;9158;51.528;7.192;2023-07-02T00:04:56;3.42;;;2.90;;
18066;SDS011;9158;51.528;7.192;2023-07-02T00:05:27;3.80;;;3.50;;
18066;SDS011;9158;51.528;7.192;2023-07-02T00:05:58;3.80;;;3.23;;
18066;SDS011;9158;51.528;7.192;2023-07-02T00:06:29;4.33;;;3.40;;
18066;SDS011;9158;51.528;7.192;2023-07-02T00:07:02;3.75;;;2.90;;
18066;SDS011;9158;51.528;7.192;2023-07-02T00:07:34;4.47;;;3.10;;
18066;SDS011;9158;51.528;7.192;2023-07-02T00:08:07;4.60;;;3.30;;
18066;SDS011;9158;51.528;7.192;2023-07-02T00:08:38;3.40;;;3.10;;
18066;SDS011;9158;51.528;7.192;2023-07-02T00:09:10;4.78;;;3.42;;
18066;SDS011;9158;51.528;7.192;2023-07-02T00:09:42;3.10;;;2.80;;
18066;SDS011;9158;51.528;7.192;2023-07-02T00:10:14;3.40;;;3.20;;
18066;SDS011;9158;51.528;7.192;2023-07-02T00:10:45;3.67;;;3.33;;
18066;SDS011;9158;51.528;7.192;2023-07-02T00:11:16;3.35;;;3.05;;
18066;SDS011;9158;51.528;7.192;2023-07-02T00:11:47;6.60;;;3.10;;
18066;SDS011;9158;51.528;7.192;2023-07-02T00:12:19;4.90;;;4.07;;
18066;SDS011;9158;51.528;7.192;2023-07-02T00:12:50;6.63;;;2.97;;
18066;SDS011;9158;51.528;7.192;2023-07-02T00:13:21;3.42;;;3.05;;
18066;SDS011;9158;51.528;7.192;2023-07-02T00:13:51;4.83;;;2.93;;
18066;SDS011;9158;51.528;7.192;2023-07-02T00:14:23;3.97;;;3.28;;
18066;SDS011;9158;51.528;7.192;2023-07-02T00:14:54;4.87;;;3.87;;
18066;SDS011;9158;51.528;7.192;2023-07-02T00:15:25;3.73;;;3.43;;
18066;SDS011;9158;51.528;7.192;2023-07-02T00:15:57;4.35;;;3.47;;
18066;SDS011;9158;51.528;7.192;2023-07-02T00:16:28;4.00;;;3.70;;
18066;SDS011;9158;51.528;7.192;2023-07-02T00:16:59;4.23;;;3.30;;
18066;SDS011;9158;51.528;7.192;2023-07-02T00:17:30;4.03;;;3.47;;
18066;SDS011;9158;51.528;7.192;2023-07-02T00:18:02;3.80;;;3.50;;
18066;SDS011;9158;51.528;7.192;2023-07-02T00:18:34;4.55;;;3.65;;
18066;SDS011;9158;51.528;7.192;2023-07-02T00:19:05;3.25;;;2.95;;
18066;SDS011;9158;51.528;7.192;2023-07-02T00:19:36;4.17;;;3.27;;
18066;SDS011;9158;51.528;7.192;2023-07-02T00:20:10;3.40;;;3.10;;
18066;SDS011;9158;51.528;7.192;2023-07-02T00:20:44;3.60;;;3.25;;
18066;SDS011;9158;51.528;7.192;2023-07-02T00:21:16;4.68;;;3.35;;
18066;SDS011;9158;51.528;7.192;2023-07-02T00:21:47;3.10;;;2.80;;
18066;SDS011;9158;51.528;7.192;2023-07-02T00:22:19;4.30;;;3.03;;
18066;SDS011;9158;51.528;7.192;2023-07-02T00:22:50;4.72;;;3.30;;
18066;SDS011;9158;51.528;7.192;2023-07-02T00:23:21;4.63;;;4.13;;
18066;SDS011;9158;51.528;7.192;2023-07-02T00:23:52;4.43;;;3.40;;
18066;SDS011;9158;51.528;7.192;2023-07-02T00:24:24;5.50;;;3.70;;
18066;SDS011;9158;51.528;7.192;2023-07-02T00:24:55;4.28;;;3.58;;
18066;SDS011;9158;51.528;7.192;2023-07-02T00:25:26;5.30;;;3.70;;
18066;SDS011;9158;51.528;7.192;2023-07-02T00:25:58;5.30;;;3.25;;
18066;SDS011;9158;51.528;7.192;2023-07-02T00:26:29;4.03;;;3.30;;
18066;SDS011;9158;51.528;7.192;2023-07-02T00:26:59;4.73;;;3.03;;
18066;SDS011;9158;51.528;7.192;2023-07-02T00:27:30;3.90;;;3.50;;
18066;SDS011;9158;51.528;7.192;2023-07-02T00:28:02;3.45;;;3.15;;
18066;SDS011;9158;51.528;7.192;2023-07-02T00:28:34;3.72;;;3.45;;
18066;SDS011;9158;51.528;7.192;2023-07-02T00:29:05;3.37;;;3.03;;
18066;SDS011;9158;51.528;7.192;2023-07-02T00:29:37;4.10;;;3.50;;
18066;SDS011;9158;51.528;7.192;2023-07-02T00:30:09;5.93;;;3.70;;
18066;SDS011;9158;51.528;7.192;2023-07-02T00:30:40;4.63;;;3.80;;
18066;SDS011;9158;51.528;7.192;2023-07-02T00:31:11;4.25;;;3.85;;
18066;SDS011;9158;51.528;7.192;2023-07-02T00:31:43;3.92;;;3.38;;
18066;SDS011;9158;51.528;7.192;2023-07-02T00:32:14;5.70;;;3.70;;
18066;SDS011;9158;51.528;7.192;2023-07-02T00:32:45;3.57;;;3.30;;
18066;SDS011;9158;51.528;7.192;2023-07-02T00:33:17;5.13;;;3.80;;
18066;SDS011;9158;51.528;7.192;2023-07-02T00:33:50;3.65;;;3.35;;
18066;SDS011;9158;51.528;7.192;2023-07-02T00:34:21;4.68;;;3.08;;
18066;SDS011;9158;51.528;7.192;2023-07-02T00:34:53;7.07;;;4.05;;
18066;SDS011;9158;51.528;7.192;2023-07-02T00:35:24;6.07;;;3.80;;
18066;SDS011;9158;51.528;7.192;2023-07-02T00:35:55;11.20;;;4.07;;
18066;SDS011;9158;51.528;7.192;2023-07-02T00:36:28;4.57;;;3.50;;
18066;SDS011;9158;51.528;7.192;2023-07-02T00:36:59;4.43;;;3.50;;
18066;SDS011;9158;51.528;7.192;2023-07-02T00:37:30;7.00;;;3.47;;
18066;SDS011;9158;51.528;7.192;2023-07-02T00:38:01;4.20;;;3.90;;
18066;SDS011;9158;51.528;7.192;2023-07-02T00:38:34;5.75;;;3.60;;
18066;SDS011;9158;51.528;7.192;2023-07-02T00:39:04;3.42;;;3.15;;
18066;SDS011;9158;51.528;7.192;2023-07-02T00:39:35;3.60;;;3.30;;
18066;SDS011;9158;51.528;7.192;2023-07-02T00:40:07;7.20;;;3.42;;
18066;SDS011;9158;51.528;7.192;2023-07-02T00:40:39;4.88;;;3.70;;
18066;SDS011;9158;51.528;7.192;2023-07-02T00:41:10;3.73;;;3.17;;
18066;SDS011;9158;51.528;7.192;2023-07-02T00:41:41;4.40;;;3.40;;
18066;SDS011;9158;51.528;7.192;2023-07-02T00:42:16;4.10;;;3.40;;
18066;SDS011;9158;51.528;7.192;2023-07-02T00:42:47;3.83;;;3.50;;
18066;SDS011;9158;51.528;7.192;2023-07-02T00:43:18;5.70;;;3.50;;
18066;SDS011;9158;51.528;7.192;2023-07-02T00:43:49;4.68;;;3.70;;
18066;SDS011;9158;51.528;7.192;2023-07-02T00:44:25;5.75;;;3.97;;
18066;SDS011;9158;51.528;7.192;2023-07-02T00:44:56;5.80;;;3.87;;
18066;SDS011;9158;51.528;7.192;2023-07-02T00:45:27;5.55;;;4.30;;
18066;SDS011;9158;51.528;7.192;2023-07-02T00:46:01;6.07;;;4.25;;
18066;SDS011;9158;51.528;7.192;2023-07-02T00:46:33;4.82;;;3.70;;
18066;SDS011;9158;51.528;7.192;2023-07-02T00:47:04;4.17;;;3.50;;
18066;SDS011;9158;51.528;7.192;2023-07-02T00:47:37;3.97;;;3.63;;
18066;SDS011;9158;51.528;7.192;2023-07-02T00:48:08;4.25;;;3.40;;
18066;SDS011;9158;51.528;7.192;2023-07-02T00:48:40;6.75;;;4.30;;
18066;SDS011;9158;51.528;7.192;2023-07-02T00:49:12;5.22;;;4.07;;
18066;SDS011;9158;51.528;7.192;2023-07-02T00:49:45;3.63;;;3.30;;
18066;SDS011;9158;51.528;7.192;2023-07-02T00:50:16;8.93;;;3.63;;
18066;SDS011;9158;51.528;7.192;2023-07-02T00:50:47;4.80;;;3.60;;
18066;SDS011;9158;51.528;7.192;2023-07-02T00:51:18;7.93;;;3.90;;
18066;SDS011;9158;51.528;7.192;2023-07-02T00:51:51;8.05;;;4.47;;
18066;SDS011;9158;51.528;7.192;2023-07-02T00:52:22;5.93;;;4.05;;
18066;SDS011;9158;51.528;7.192;2023-07-02T00:52:54;3.88;;;3.42;;
18066;SDS011;9158;51.528;7.192;2023-07-02T00:53:25;5.53;;;3.53;;
18066;SDS011;9158;51.528;7.192;2023-07-02T00:53:57;6.60;;;3.45;;
18066;SDS011;9158;51.528;7.192;2023-07-02T00:54:29;3.50;;;3.17;;
18066;SDS011;9158;51.528;7.192;2023-07-02T00:55:00;9.25;;;4.10;;
18066;SDS011;9158;51.528;7.192;2023-07-02T00:55:33;6.10;;;3.33;;
18066;SDS011;9158;51.528;7.192;2023-07-02T00:56:04;6.60;;;3.90;;
18066;SDS011;9158;51.528;7.192;2023-07-02T00:56:35;4.55;;;3.47;;
18066;SDS011;9158;51.528;7.192;2023-07-02T00:57:06;4.43;;;3.13;;
18066;SDS011;9158;51.528;7.192;2023-07-02T00:57:38;7.18;;;4.10;;
18066;SDS011;9158;51.528;7.192;2023-07-02T00:58:11;5.55;;;3.97;;
18066;SDS011;9158;51.528;7.192;2023-07-02T00:58:46;6.13;;;3.35;;
18066;SDS011;9158;51.528;7.192;2023-07-02T00:59:20;4.63;;;3.80;;
18066;SDS011;9158;51.528;7.192;2023-07-02T00:59:51;8.05;;;4.38;;
18066;SDS011;9158;51.528;7.192;2023-07-02T01:00:23;6.40;;;4.03;;
18066;SDS011;9158;51.528;7.192;2023-07-02T01:00:54;3.10;;;2.90;;
18066;SDS011;9158;51.528;7.192;2023-07-02T01:01:27;4.65;;;3.53;;
18066;SDS011;9158;51.528;7.192;2023-07-02T01:01:58;5.30;;;3.40;;
18066;SDS011;9158;51.528;7.192;2023-07-02T01:02:29;4.80;;;3.70;;
18066;SDS011;9158;51.528;7.192;2023-07-02T01:03:01;4.05;;;3.65;;
18066;SDS011;9158;51.528;7.192;2023-07-02T01:03:34;5.95;;;3.70;;
18066;SDS011;9158;51.528;7.192;2023-07-02T01:04:07;6.47;;;4.00;;
18066;SDS011;9158;51.528;7.192;2023-07-02T01:04:40;4.10;;;3.70;;
18066;SDS011;9158;51.528;7.192;2023-07-02T01:05:13;5.07;;;4.10;;
18066;SDS011;9158;51.528;7.192;2023-07-02T01:05:46;5.80;;;3.50;;
18066;SDS011;9158;51.528;7.192;2023-07-02T01:06:17;4.28;;;3.83;;
18066;SDS011;9158;51.528;7.192;2023-07-02T01:06:50;5.43;;;3.75;;
18066;SDS011;9158;51.528;7.192;2023-07-02T01:07:27;5.03;;;3.40;;
18066;SDS011;9158;51.528;7.192;2023-07-02T01:07:58;6.95;;;3.50;;
18066;SDS011;9158;51.528;7.192;2023-07-02T01:08:29;4.37;;;3.43;;
18066;SDS011;9158;51.528;7.192;2023-07-02T01:09:02;5.20;;;3.42;;
18066;SDS011;9158;51.528;7.192;2023-07-02T01:09:34;6.00;;;3.85;;
18066;SDS011;9158;51.528;7.192;2023-07-02T01:10:05;3.90;;;3.37;;
18066;SDS011;9158;51.528;7.192;2023-07-02T01:10:37;6.03;;;3.85;;
18066;SDS011;9158;51.528;7.192;2023-07-02T01:11:09;5.03;;;3.53;;
18066;SDS011;9158;51.528;7.192;2023-07-02T01:11:40;4.95;;;3.38;;
18066;SDS011;9158;51.528;7.192;2023-07-02T01:12:14;5.30;;;4.20;;
18066;SDS011;9158;51.528;7.192;2023-07-02T01:12:48;6.95;;;4.47;;
18066;SDS011;9158;51.528;7.192;2023-07-02T01:13:20;5.95;;;4.10;;
18066;SDS011;9158;51.528;7.192;2023-07-02T01:13:56;5.72;;;3.50;;
18066;SDS011;9158;51.528;7.192;2023-07-02T01:14:31;4.28;;;3.53;;
18066;SDS011;9158;51.528;7.192;2023-07-02T01:15:06;7.05;;;4.43;;
18066;SDS011;9158;51.528;7.192;2023-07-02T01:15:39;6.40;;;3.40;;
18066;SDS011;9158;51.528;7.192;2023-07-02T01:16:10;4.88;;;4.20;;
18066;SDS011;9158;51.528;7.192;2023-07-02T01:16:42;6.22;;;4.00;;
18066;SDS011;9158;51.528;7.192;2023-07-02T01:17:14;6.05;;;3.60;;
18066;SDS011;9158;51.528;7.192;2023-07-02T01:17:49;6.20;;;3.45;;
18066;SDS011;9158;51.528;7.192;2023-07-02T01:18:23;4.20;;;3.72;;
18066;SDS011;9158;51.528;7.192;2023-07-02T01:18:54;5.40;;;3.75;;
18066;SDS011;9158;51.528;7.192;2023-07-02T01:19:34;4.90;;;4.28;;
18066;SDS011;9158;51.528;7.192;2023-07-02T01:20:12;6.68;;;4.40;;
18066;SDS011;9158;51.528;7.192;2023-07-02T01:20:44;5.07;;;3.53;;
18066;SDS011;9158;51.528;7.192;2023-07-02T01:21:17;4.38;;;3.90;;
18066;SDS011;9158;51.528;7.192;2023-07-02T01:21:49;4.68;;;4.05;;
18066;SDS011;9158;51.528;7.192;2023-07-02T01:22:23;7.15;;;4.60;;
18066;SDS011;9158;51.528;7.192;2023-07-02T01:22:55;6.85;;;4.65;;
18066;SDS011;9158;51.528;7.192;2023-07-02T01:23:27;4.45;;;3.90;;
18066;SDS011;9158;51.528;7.192;2023-07-02T01:23:59;4.00;;;3.38;;
18066;SDS011;9158;51.528;7.192;2023-07-02T01:24:31;5.30;;;4.00;;
18066;SDS011;9158;51.528;7.192;2023-07-02T01:25:02;5.47;;;3.80;;
18066;SDS011;9158;51.528;7.192;2023-07-02T01:25:33;3.90;;;3.47;;
18066;SDS011;9158;51.528;7.192;2023-07-02T01:26:06;5.15;;;3.75;;
18066;SDS011;9158;51.528;7.192;2023-07-02T01:26:39;5.53;;;4.18;;
18066;SDS011;9158;51.528;7.192;2023-07-02T01:27:11;10.15;;;4.68;;
18066;SDS011;9158;51.528;7.192;2023-07-02T01:27:42;4.43;;;3.85;;
18066;SDS011;9158;51.528;7.192;2023-07-02T01:28:14;5.45;;;4.00;;
18066;SDS011;9158;51.528;7.192;2023-07-02T01:28:45;6.13;;;3.47;;
18066;SDS011;9158;51.528;7.192;2023-07-02T01:29:17;5.78;;;3.65;;
18066;SDS011;9158;51.528;7.192;2023-07-02T01:29:50;4.18;;;3.70;;
18066;SDS011;9158;51.528;7.192;2023-07-02T01:30:22;4.25;;;3.60;;
18066;SDS011;9158;51.528;7.192;2023-07-02T01:30:53;4.00;;;3.67;;
18066;SDS011;9158;51.528;7.192;2023-07-02T01:31:24;7.40;;;4.27;;
18066;SDS011;9158;51.528;7.192;2023-07-02T01:31:56;3.90;;;3.50;;
18066;SDS011;9158;51.528;7.192;2023-07-02T01:32:28;5.20;;;4.10;;
18066;SDS011;9158;51.528;7.192;2023-07-02T01:32:59;7.70;;;4.40;;
18066;SDS011;9158;51.528;7.192;2023-07-02T01:33:30;5.50;;;3.95;;
18066;SDS011;9158;51.528;7.192;2023-07-02T01:34:01;6.50;;;3.97;;
18066;SDS011;9158;51.528;7.192;2023-07-02T01:34:36;6.22;;;3.67;;
18066;SDS011;9158;51.528;7.192;2023-07-02T01:35:08;6.43;;;3.42;;
18066;SDS011;9158;51.528;7.192;2023-07-02T01:35:39;5.90;;;3.42;;
18066;SDS011;9158;51.528;7.192;2023-07-02T01:36:10;4.37;;;3.97;;
18066;SDS011;9158;51.528;7.192;2023-07-02T01:36:42;4.70;;;3.80;;
18066;SDS011;9158;51.528;7.192;2023-07-02T01:37:13;8.10;;;4.33;;
18066;SDS011;9158;51.528;7.192;2023-07-02T01:37:44;9.23;;;4.00;;
18066;SDS011;9158;51.528;7.192;2023-07-02T01:38:16;8.52;;;4.30;;
18066;SDS011;9158;51.528;7.192;2023-07-02T01:38:46;4.63;;;3.80;;
18066;SDS011;9158;51.528;7.192;2023-07-02T01:39:17;6.50;;;4.63;;
18066;SDS011;9158;51.528;7.192;2023-07-02T01:39:49;5.95;;;3.47;;
18066;SDS011;9158;51.528;7.192;2023-07-02T01:40:20;4.60;;;3.17;;
18066;SDS011;9158;51.528;7.192;2023-07-02T01:40:51;5.43;;;4.30;;
18066;SDS011;9158;51.528;7.192;2023-07-02T01:41:22;4.63;;;3.90;;
18066;SDS011;9158;51.528;7.192;2023-07-02T01:41:55;6.32;;;4.13;;
18066;SDS011;9158;51.528;7.192;2023-07-02T01:42:37;6.65;;;4.05;;
18066;SDS011;9158;51.528;7.192;2023-07-02T01:43:08;5.78;;;4.03;;
18066;SDS011;9158;51.528;7.192;2023-07-02T01:43:40;6.40;;;3.72;;
18066;SDS011;9158;51.528;7.192;2023-07-02T01:44:11;8.43;;;3.83;;
18066;SDS011;9158;51.528;7.192;2023-07-02T01:44:42;5.87;;;3.87;;
18066;SDS011;9158;51.528;7.192;2023-07-02T01:45:14;4.40;;;3.70;;
18066;SDS011;9158;51.528;7.192;2023-07-02T01:45:45;5.57;;;4.20;;
18066;SDS011;9158;51.528;7.192;2023-07-02T01:46:17;5.90;;;3.78;;
18066;SDS011;9158;51.528;7.192;2023-07-02T01:46:49;6.45;;;3.75;;
18066;SDS011;9158;51.528;7.192;2023-07-02T01:47:21;4.57;;;3.70;;
18066;SDS011;9158;51.528;7.192;2023-07-02T01:47:52;7.33;;;4.17;;
18066;SDS011;9158;51.528;7.192;2023-07-02T01:48:23;8.07;;;4.60;;
18066;SDS011;9158;51.528;7.192;2023-07-02T01:48:54;6.43;;;3.95;;
18066;SDS011;9158;51.528;7.192;2023-07-02T01:49:25;7.07;;;3.50;;
18066;SDS011;9158;51.528;7.192;2023-07-02T01:49:58;7.13;;;4.70;;
18066;SDS011;9158;51.528;7.192;2023-07-02T01:50:29;4.75;;;4.13;;
18066;SDS011;9158;51.528;7.192;2023-07-02T01:51:01;5.45;;;3.60;;
18066;SDS011;9158;51.528;7.192;2023-07-02T01:51:33;4.78;;;4.25;;
18066;SDS011;9158;51.528;7.192;2023-07-02T01:52:04;4.25;;;3.70;;
18066;SDS011;9158;51.528;7.192;2023-07-02T01:52:36;3.83;;;3.40;;
18066;SDS011;9158;51.528;7.192;2023-07-02T01:53:08;7.65;;;3.95;;
18066;SDS011;9158;51.528;7.192;2023-07-02T01:53:39;6.73;;;3.93;;
18066;SDS011;9158;51.528;7.192;2023-07-02T01:54:10;5.88;;;4.60;;
18066;SDS011;9158;51.528;7.192;2023-07-02T01:54:41;8.20;;;4.97;;
18066;SDS011;9158;51.528;7.192;2023-07-02T01:55:13;4.63;;;3.90;;
18066;SDS011;9158;51.528;7.192;2023-07-02T01:55:44;7.83;;;4.13;;
18066;SDS011;9158;51.528;7.192;2023-07-02T01:56:15;4.60;;;3.97;;
18066;SDS011;9158;51.528;7.192;2023-07-02T01:56:48;3.70;;;3.40;;
18066;SDS011;9158;51.528;7.192;2023-07-02T01:57:19;5.40;;;3.55;;
18066;SDS011;9158;51.528;7.192;2023-07-02T01:57:50;4.47;;;4.07;;
18066;SDS011;9158;51.528;7.192;2023-07-02T01:58:22;6.15;;;4.55;;
18066;SDS011;9158;51.528;7.192;2023-07-02T01:58:53;5.60;;;4.13;;
18066;SDS011;9158;51.528;7.192;2023-07-02T01:59:24;6.47;;;3.67;;
18066;SDS011;9158;51.528;7.192;2023-07-02T01:59:55;4.53;;;4.07;;
18066;SDS011;9158;51.528;7.192;2023-07-02T02:00:28;5.20;;;3.53;;
18066;SDS011;9158;51.528;7.192;2023-07-02T02:00:59;7.85;;;5.10;;
18066;SDS011;9158;51.528;7.192;2023-07-02T02:01:30;5.80;;;4.53;;
18066;SDS011;9158;51.528;7.192;2023-07-02T02:02:03;4.88;;;3.63;;
18066;SDS011;9158;51.528;7.192;2023-07-02T02:02:34;5.95;;;4.05;;
18066;SDS011;9158;51.528;7.192;2023-07-02T02:03:05;4.60;;;3.78;;
18066;SDS011;9158;51.528;7.192;2023-07-02T02:03:39;6.70;;;3.70;;
18066;SDS011;9158;51.528;7.192;2023-07-02T02:04:10;6.27;;;4.10;;
18066;SDS011;9158;51.528;7.192;2023-07-02T02:04:41;5.38;;;3.60;;
18066;SDS011;9158;51.528;7.192;2023-07-02T02:05:15;5.70;;;4.55;;
18066;SDS011;9158;51.528;7.192;2023-07-02T02:05:46;5.80;;;3.58;;
18066;SDS011;9158;51.528;7.192;2023-07-02T02:06:16;5.07;;;3.80;;
18066;SDS011;9158;51.528;7.192;2023-07-02T02:06:49;6.57;;;3.42;;
18066;SDS011;9158;51.528;7.192;2023-07-02T02:07:22;4.18;;;3.80;;
18066;SDS011;9158;51.528;7.192;2023-07-02T02:07:53;4.13;;;3.73;;
18066;SDS011;9158;51.528;7.192;2023-07-02T02:08:24;7.77;;;4.30;;
18066;SDS011;9158;51.528;7.192;2023-07-02T02:08:54;6.40;;;4.47;;
18066;SDS011;9158;51.528;7.192;2023-07-02T02:09:26;6.65;;;3.88;;
18066;SDS011;9158;51.528;7.192;2023-07-02T02:09:58;5.13;;;4.10;;
18066;SDS011;9158;51.528;7.192;2023-07-02T02:10:29;5.80;;;4.03;;
18066;SDS011;9158;51.528;7.192;2023-07-02T02:11:01;6.40;;;4.25;;
18066;SDS011;9158;51.528;7.192;2023-07-02T02:11:32;6.30;;;4.30;;
18066;SDS011;9158;51.528;7.192;2023-07-02T02:12:04;5.97;;;4.10;;
18066;SDS011;9158;51.528;7.192;2023-07-02T02:12:36;8.07;;;4.60;;
18066;SDS011;9158;51.528;7.192;2023-07-02T02:13:11;5.40;;;4.50;;
18066;SDS011;9158;51.528;7.192;2023-07-02T02:13:41;5.53;;;4.93;;
18066;SDS011;9158;51.528;7.192;2023-07-02T02:14:12;6.53;;;4.10;;
18066;SDS011;9158;51.528;7.192;2023-07-02T02:14:43;6.03;;;4.25;;
18066;SDS011;9158;51.528;7.192;2023-07-02T02:15:15;6.32;;;4.22;;
18066;SDS011;9158;51.528;7.192;2023-07-02T02:15:46;8.68;;;3.90;;
18066;SDS011;9158;51.528;7.192;2023-07-02T02:16:17;6.00;;;4.17;;
18066;SDS011;9158;51.528;7.192;2023-07-02T02:16:49;8.55;;;4.20;;
18066;SDS011;9158;51.528;7.192;2023-07-02T02:17:20;8.60;;;4.73;;
18066;SDS011;9158;51.528;7.192;2023-07-02T02:17:51;7.33;;;4.17;;
18066;SDS011;9158;51.528;7.192;2023-07-02T02:18:24;8.52;;;4.80;;
18066;SDS011;9158;51.528;7.192;2023-07-02T02:18:56;8.73;;;4.80;;
18066;SDS011;9158;51.528;7.192;2023-07-02T02:19:27;7.40;;;4.87;;
18066;SDS011;9158;51.528;7.192;2023-07-02T02:19:58;4.43;;;4.03;;
18066;SDS011;9158;51.528;7.192;2023-07-02T02:20:31;5.20;;;4.70;;
18066;SDS011;9158;51.528;7.192;2023-07-02T02:21:01;7.18;;;5.55;;
18066;SDS011;9158;51.528;7.192;2023-07-02T02:21:33;6.28;;;3.78;;
18066;SDS011;9158;51.528;7.192;2023-07-02T02:22:04;9.73;;;4.83;;
18066;SDS011;9158;51.528;7.192;2023-07-02T02:22:35;5.28;;;4.10;;
18066;SDS011;9158;51.528;7.192;2023-07-02T02:23:06;4.90;;;4.40;;
18066;SDS011;9158;51.528;7.192;2023-07-02T02:23:38;4.90;;;3.85;;
18066;SDS011;9158;51.528;7.192;2023-07-02T02:24:09;6.53;;;4.55;;
18066;SDS011;9158;51.528;7.192;2023-07-02T02:24:41;5.32;;;4.22;;
18066;SDS011;9158;51.528;7.192;2023-07-02T02:25:12;6.82;;;4.85;;
18066;SDS011;9158;51.528;7.192;2023-07-02T02:25:44;7.22;;;4.40;;
18066;SDS011;9158;51.528;7.192;2023-07-02T02:26:15;6.97;;;4.45;;
18066;SDS011;9158;51.528;7.192;2023-07-02T02:26:46;7.80;;;4.63;;
18066;SDS011;9158;51.528;7.192;2023-07-02T02:27:17;6.90;;;4.57;;
18066;SDS011;9158;51.528;7.192;2023-07-02T02:27:49;8.45;;;4.57;;
18066;SDS011;9158;51.528;7.192;2023-07-02T02:28:20;6.63;;;4.30;;
18066;SDS011;9158;51.528;7.192;2023-07-02T02:28:51;5.45;;;4.10;;
18066;SDS011;9158;51.528;7.192;2023-07-02T02:29:23;8.93;;;4.32;;
18066;SDS011;9158;51.528;7.192;2023-07-02T02:29:54;7.60;;;4.82;;
18066;SDS011;9158;51.528;7.192;2023-07-02T02:30:25;4.75;;;4.20;;
18066;SDS011;9158;51.528;7.192;2023-07-02T02:30:57;10.68;;;5.43;;
18066;SDS011;9158;51.528;7.192;2023-07-02T02:31:29;7.30;;;4.68;;
18066;SDS011;9158;51.528;7.192;2023-07-02T02:32:01;7.13;;;4.55;;
18066;SDS011;9158;51.528;7.192;2023-07-02T02:32:33;8.13;;;4.65;;
18066;SDS011;9158;51.528;7.192;2023-07-02T02:33:05;7.60;;;5.47;;
18066;SDS011;9158;51.528;7.192;2023-07-02T02:33:37;6.82;;;4.60;;
18066;SDS011;9158;51.528;7.192;2023-07-02T02:34:09;8.63;;;5.00;;
18066;SDS011;9158;51.528;7.192;2023-07-02T02:34:40;5.63;;;4.20;;
18066;SDS011;9158;51.528;7.192;2023-07-02T02:35:11;5.45;;;4.57;;
18066;SDS011;9158;51.528;7.192;2023-07-02T02:35:44;7.55;;;4.93;;
18066;SDS011;9158;51.528;7.192;2023-07-02T02:36:18;5.65;;;4.38;;
18066;SDS011;9158;51.528;7.192;2023-07-02T02:36:49;6.27;;;4.33;;
18066;SDS011;9158;51.528;7.192;2023-07-02T02:37:20;10.40;;;5.30;;
18066;SDS011;9158;51.528;7.192;2023-07-02T02:37:52;5.55;;;4.43;;
18066;SDS011;9158;51.528;7.192;2023-07-02T02:38:25;9.70;;;4.70;;
18066;SDS011;9158;51.528;7.192;2023-07-02T02:38:56;8.30;;;5.57;;
18066;SDS011;9158;51.528;7.192;2023-07-02T02:39:29;6.07;;;5.28;;
18066;SDS011;9158;51.528;7.192;2023-07-02T02:40:00;5.80;;;5.10;;
18066;SDS011;9158;51.528;7.192;2023-07-02T02:40:33;12.90;;;10.20;;
18066;SDS011;9158;51.528;7.192;2023-07-02T02:41:05;13.30;;;7.95;;
18066;SDS011;9158;51.528;7.192;2023-07-02T02:41:41;10.25;;;7.93;;
18066;SDS011;9158;51.528;7.192;2023-07-02T02:42:13;13.65;;;8.55;;
18066;SDS011;9158;51.528;7.192;2023-07-02T02:42:44;11.40;;;7.03;;
18066;SDS011;9158;51.528;7.192;2023-07-02T02:43:15;10.82;;;8.85;;
18066;SDS011;9158;51.528;7.192;2023-07-02T02:43:48;11.27;;;8.13;;
18066;SDS011;9158;51.528;7.192;2023-07-02T02:44:22;10.30;;;8.43;;
18066;SDS011;9158;51.528;7.192;2023-07-02T02:44:53;12.30;;;7.77;;
18066;SDS011;9158;51.528;7.192;2023-07-02T02:45:24;12.23;;;8.00;;
18066;SDS011;9158;51.528;7.192;2023-07-02T02:45:56;11.02;;;8.18;;
18066;SDS011;9158;51.528;7.192;2023-07-02T02:46:26;13.10;;;9.57;;
18066;SDS011;9158;51.528;7.192;2023-07-02T02:46:57;12.07;;;7.50;;
18066;SDS011;9158;51.528;7.192;2023-07-02T02:47:28;9.33;;;6.47;;
18066;SDS011;9158;51.528;7.192;2023-07-02T02:48:00;10.25;;;7.00;;
18066;SDS011;9158;51.528;7.192;2023-07-02T02:48:31;8.05;;;6.65;;
18066;SDS011;9158;51.528;7.192;2023-07-02T02:49:02;7.33;;;6.63;;
18066;SDS011;9158;51.528;7.192;2023-07-02T02:49:36;10.75;;;7.10;;
18066;SDS011;9158;51.528;7.192;2023-07-02T02:50:07;11.10;;;6.55;;
18066;SDS011;9158;51.528;7.192;2023-07-02T02:50:40;13.02;;;7.13;;
18066;SDS011;9158;51.528;7.192;2023-07-02T02:51:15;12.25;;;6.70;;
18066;SDS011;9158;51.528;7.192;2023-07-02T02:51:46;8.27;;;7.28;;
18066;SDS011;9158;51.528;7.192;2023-07-02T02:52:17;10.40;;;6.93;;
18066;SDS011;9158;51.528;7.192;2023-07-02T02:52:48;14.48;;;7.05;;
18066;SDS011;9158;51.528;7.192;2023-07-02T02:53:20;8.60;;;6.45;;
18066;SDS011;9158;51.528;7.192;2023-07-02T02:53:51;14.25;;;6.95;;
18066;SDS011;9158;51.528;7.192;2023-07-02T02:54:22;9.50;;;7.23;;
18066;SDS011;9158;51.528;7.192;2023-07-02T02:54:53;10.00;;;7.17;;
18066;SDS011;9158;51.528;7.192;2023-07-02T02:55:25;11.00;;;7.22;;
18066;SDS011;9158;51.528;7.192;2023-07-02T02:55:56;10.48;;;6.30;;
18066;SDS011;9158;51.528;7.192;2023-07-02T02:56:27;9.10;;;6.57;;
18066;SDS011;9158;51.528;7.192;2023-07-02T02:56:59;7.82;;;5.72;;
18066;SDS011;9158;51.528;7.192;2023-07-02T02:57:30;11.93;;;7.63;;
18066;SDS011;9158;51.528;7.192;2023-07-02T02:58:01;14.50;;;7.13;;
18066;SDS011;9158;51.528;7.192;2023-07-02T02:58:32;12.45;;;10.82;;
18066;SDS011;9158;51.528;7.192;2023-07-02T02:59:04;13.75;;;9.80;;
18066;SDS011;9158;51.528;7.192;2023-07-02T02:59:35;13.30;;;11.50;;
18066;SDS011;9158;51.528;7.192;2023-07-02T03:00:06;10.57;;;8.90;;
18066;SDS011;9158;51.528;7.192;2023-07-02T03:00:39;10.60;;;7.72;;
18066;SDS011;9158;51.528;7.192;2023-07-02T03:01:13;8.88;;;7.30;;
18066;SDS011;9158;51.528;7.192;2023-07-02T03:01:45;10.38;;;6.28;;
18066;SDS011;9158;51.528;7.192;2023-07-02T03:02:17;8.23;;;6.57;;
18066;SDS011;9158;51.528;7.192;2023-07-02T03:02:48;9.60;;;6.57;;
18066;SDS011;9158;51.528;7.192;2023-07-02T03:03:19;12.75;;;6.57;;
18066;SDS011;9158;51.528;7.192;2023-07-02T03:03:51;9.10;;;5.95;;
18066;SDS011;9158;51.528;7.192;2023-07-02T03:04:22;12.13;;;6.40;;
18066;SDS011;9158;51.528;7.192;2023-07-02T03:04:54;9.60;;;6.25;;
18066;SDS011;9158;51.528;7.192;2023-07-02T03:05:27;8.80;;;6.95;;
18066;SDS011;9158;51.528;7.192;2023-07-02T03:05:59;8.65;;;5.88;;
18066;SDS011;9158;51.528;7.192;2023-07-02T03:06:31;8.43;;;6.05;;
18066;SDS011;9158;51.528;7.192;2023-07-02T03:07:02;13.40;;;6.80;;
18066;SDS011;9158;51.528;7.192;2023-07-02T03:07:34;9.63;;;6.18;;
18066;SDS011;9158;51.528;7.192;2023-07-02T03:08:05;9.48;;;6.75;;
18066;SDS011;9158;51.528;7.192;2023-07-02T03:08:36;9.07;;;6.63;;
18066;SDS011;9158;51.528;7.192;2023-07-02T03:09:07;9.00;;;6.05;;
18066;SDS011;9158;51.528;7.192;2023-07-02T03:09:40;8.07;;;5.72;;
18066;SDS011;9158;51.528;7.192;2023-07-02T03:10:11;13.05;;;7.05;;
18066;SDS011;9158;51.528;7.192;2023-07-02T03:10:42;8.30;;;6.75;;
18066;SDS011;9158;51.528;7.192;2023-07-02T03:11:14;10.27;;;6.07;;
18066;SDS011;9158;51.528;7.192;2023-07-02T03:11:45;11.57;;;6.70;;
18066;SDS011;9158;51.528;7.192;2023-07-02T03:12:16;10.88;;;6.50;;
18066;SDS011;9158;51.528;7.192;2023-07-02T03:12:48;12.63;;;7.15;;
18066;SDS011;9158;51.528;7.192;2023-07-02T03:13:19;9.10;;;6.47;;
18066;SDS011;9158;51.528;7.192;2023-07-02T03:13:50;12.00;;;6.80;;
18066;SDS011;9158;51.528;7.192;2023-07-02T03:14:21;8.95;;;6.53;;